createdAt,value
2023-04-08T00:02:20.189Z,54.93
2023-04-08T00:04:48.989Z,55.16
2023-04-08T00:07:17.785Z,54.74
2023-04-08T00:09:46.778Z,55.45
2023-04-08T00:12:15.538Z,55.23
2023-04-08T00:14:44.419Z,55.41
2023-04-08T00:17:13.253Z,55.56
2023-04-08T00:19:42.166Z,55.54
2023-04-08T00:22:10.820Z,55.16
2023-04-08T00:24:41.259Z,55.38
2023-04-08T00:27:10.168Z,55.33
2023-04-08T00:29:39.177Z,56.37
2023-04-08T00:32:08.004Z,55.92
2023-04-08T00:34:37.957Z,55.84
2023-04-08T00:37:07.300Z,56.74
2023-04-08T00:39:35.972Z,55.95
2023-04-08T00:42:05.018Z,55.92
2023-04-08T00:44:34.024Z,56.10
2023-04-08T00:47:02.892Z,56.21
2023-04-08T00:49:32.743Z,56.40
2023-04-08T00:52:02.135Z,56.58
2023-04-08T00:54:32.466Z,57.09
2023-04-08T00:57:01.846Z,56.36
2023-04-08T00:59:32.398Z,56.84
2023-04-08T01:02:20.406Z,55.90
2023-04-08T01:05:20.429Z,55.44
2023-04-08T01:07:50.513Z,55.42
2023-04-08T01:10:31.567Z,55.08
2023-04-08T01:13:09.093Z,56.05
2023-04-08T01:15:42.968Z,55.56
2023-04-08T01:18:14.450Z,55.36
2023-04-08T01:20:44.988Z,55.17
2023-04-08T01:23:54.840Z,54.90
2023-04-08T01:26:26.470Z,54.47
2023-04-08T01:29:00.422Z,55.14
2023-04-08T01:31:29.746Z,54.62
2023-04-08T01:34:03.302Z,54.60
2023-04-08T01:36:33.383Z,54.67
2023-04-08T01:39:04.148Z,54.45
2023-04-08T01:41:37.192Z,53.76
2023-04-08T01:44:06.730Z,53.61
2023-04-08T01:46:36.572Z,53.41
2023-04-08T01:49:07.153Z,53.57
2023-04-08T01:51:39.296Z,53.24
2023-04-08T01:54:08.370Z,53.36
2023-04-08T01:56:40.602Z,53.18
2023-04-08T01:59:14.757Z,52.83
2023-04-08T02:01:46.457Z,49.54
2023-04-08T02:04:15.414Z,46.63
2023-04-08T02:06:46.763Z,45.12
2023-04-08T02:09:15.461Z,44.01
2023-04-08T02:11:44.077Z,42.70
2023-04-08T02:14:14.551Z,41.76
2023-04-08T02:16:54.485Z,40.33
2023-04-08T02:19:37.224Z,39.48
2023-04-08T02:22:15.332Z,39.62
2023-04-08T02:24:45.322Z,39.13
2023-04-08T02:27:15.010Z,37.89
2023-04-08T02:29:47.044Z,37.25
2023-04-08T02:32:17.176Z,36.35
2023-04-08T02:34:48.641Z,35.15
2023-04-08T02:37:17.360Z,35.24
2023-04-08T02:39:46.348Z,34.79
2023-04-08T02:42:15.407Z,34.36
2023-04-08T02:44:44.187Z,34.96
2023-04-08T02:47:13.081Z,34.66
2023-04-08T02:49:41.842Z,35.19
2023-04-08T02:52:10.683Z,35.17
2023-04-08T02:54:39.348Z,35.37
2023-04-08T02:57:08.084Z,35.40
2023-04-08T02:59:38.400Z,36.19
2023-04-08T03:02:07.218Z,35.98
2023-04-08T03:04:35.901Z,37.06
2023-04-08T03:07:05.338Z,37.45
2023-04-08T03:09:35.399Z,36.76
2023-04-08T03:12:04.334Z,37.56
2023-04-08T03:14:33.239Z,37.48
2023-04-08T03:17:01.947Z,37.76
2023-04-08T03:19:30.961Z,38.28
2023-04-08T03:21:59.765Z,38.59
2023-04-08T03:24:28.504Z,38.90
2023-04-08T03:26:57.227Z,38.71
2023-04-08T03:29:26.125Z,39.79
2023-04-08T03:31:55.207Z,39.11
2023-04-08T03:34:24.087Z,38.91
2023-04-08T03:36:53.006Z,39.38
2023-04-08T03:39:21.823Z,38.92
2023-04-08T03:41:50.646Z,38.68
2023-04-08T03:44:19.420Z,39.50
2023-04-08T03:46:48.122Z,39.25
2023-04-08T03:49:17.000Z,38.97
2023-04-08T03:51:45.960Z,39.21
2023-04-08T03:54:14.756Z,39.14
2023-04-08T03:56:43.691Z,39.48
2023-04-08T03:59:12.516Z,39.68
2023-04-08T04:01:42.080Z,38.58
2023-04-08T04:04:11.272Z,38.92
2023-04-08T04:06:40.428Z,39.60
2023-04-08T04:09:09.459Z,39.59
2023-04-08T04:11:38.616Z,38.97
2023-04-08T04:14:07.425Z,38.31
2023-04-08T04:16:36.236Z,38.20
2023-04-08T04:19:05.194Z,38.02
2023-04-08T04:21:35.318Z,38.80
2023-04-08T04:24:04.284Z,38.33
2023-04-08T04:26:33.216Z,38.69
2023-04-08T04:29:01.942Z,38.32
2023-04-08T04:31:31.585Z,37.86
2023-04-08T04:34:00.218Z,37.63
2023-04-08T04:36:29.098Z,38.01
2023-04-08T04:38:57.979Z,37.55
2023-04-08T04:41:28.003Z,38.21
2023-04-08T04:43:57.166Z,37.67
2023-04-08T04:46:26.064Z,38.43
2023-04-08T04:48:54.690Z,38.37
2023-04-08T04:51:25.995Z,38.41
2023-04-08T04:53:54.557Z,38.32
2023-04-08T04:56:23.334Z,37.76
2023-04-08T04:58:54.595Z,37.73
2023-04-08T05:01:23.409Z,37.75
2023-04-08T05:03:52.199Z,37.56
2023-04-08T05:06:20.979Z,38.07
2023-04-08T05:08:50.069Z,37.46
2023-04-08T05:11:22.600Z,37.57
2023-04-08T05:13:51.459Z,38.06
2023-04-08T05:16:20.197Z,37.27
2023-04-08T05:18:49.383Z,38.15
2023-04-08T05:21:18.501Z,37.77
2023-04-08T05:23:47.380Z,36.65
2023-04-08T05:26:16.636Z,37.20
2023-04-08T05:28:45.343Z,37.22
2023-04-08T05:31:17.576Z,37.44
2023-04-08T05:33:46.820Z,37.39
2023-04-08T05:36:16.175Z,37.19
2023-04-08T05:38:45.064Z,37.48
2023-04-08T05:41:13.971Z,37.49
2023-04-08T05:43:42.828Z,37.39
2023-04-08T05:46:12.163Z,37.00
2023-04-08T05:48:41.233Z,36.59
2023-04-08T05:51:15.583Z,36.66
2023-04-08T05:53:46.018Z,37.05
2023-04-08T05:56:14.885Z,36.83
2023-04-08T05:58:46.371Z,36.49
2023-04-08T06:01:15.311Z,36.30
2023-04-08T06:03:44.266Z,35.33
2023-04-08T06:06:14.180Z,35.29
2023-04-08T06:08:42.893Z,35.32
2023-04-08T06:11:12.923Z,35.92
2023-04-08T06:13:43.498Z,35.98
2023-04-08T06:16:13.874Z,35.37
2023-04-08T06:18:42.967Z,35.62
2023-04-08T06:21:12.401Z,35.52
2023-04-08T06:23:41.146Z,34.80
2023-04-08T06:26:09.804Z,35.15
2023-04-08T06:28:38.445Z,34.63
2023-04-08T06:31:07.186Z,35.48
2023-04-08T06:33:36.247Z,34.61
2023-04-08T06:36:06.607Z,35.02
2023-04-08T06:38:35.504Z,35.08
2023-04-08T06:41:10.027Z,35.69
2023-04-08T06:43:38.802Z,36.08
2023-04-08T06:46:07.906Z,35.66
2023-04-08T06:48:38.386Z,35.05
2023-04-08T06:51:08.512Z,34.84
2023-04-08T06:53:37.324Z,35.34
2023-04-08T06:56:06.113Z,34.84
2023-04-08T06:58:35.112Z,35.52
2023-04-08T07:01:04.129Z,35.21
2023-04-08T07:03:33.217Z,35.83
2023-04-08T07:06:01.957Z,35.95
2023-04-08T07:08:30.919Z,35.62
2023-04-08T07:10:59.769Z,35.44
2023-04-08T07:13:28.724Z,35.62
2023-04-08T07:15:57.589Z,35.57
2023-04-08T07:18:27.172Z,36.02
2023-04-08T07:20:56.435Z,36.58
2023-04-08T07:23:25.328Z,35.75
2023-04-08T07:25:54.808Z,36.04
2023-04-08T07:28:23.731Z,36.56
2023-04-08T07:30:53.162Z,36.23
2023-04-08T07:33:22.110Z,35.56
2023-04-08T07:35:50.843Z,35.73
2023-04-08T07:38:19.709Z,35.91
2023-04-08T07:40:48.401Z,36.38
2023-04-08T07:43:17.296Z,36.42
2023-04-08T07:45:46.224Z,36.69
2023-04-08T07:48:14.818Z,36.02
2023-04-08T07:51:08.419Z,36.04
2023-04-08T07:53:32.748Z,36.22
2023-04-08T07:56:02.286Z,36.57
2023-04-08T07:58:32.891Z,36.75
2023-04-08T08:01:01.707Z,36.39
2023-04-08T08:03:32.547Z,36.92
2023-04-08T08:06:02.939Z,36.90
2023-04-08T08:08:34.246Z,37.24
2023-04-08T08:11:02.934Z,37.20
2023-04-08T08:13:31.790Z,36.98
2023-04-08T08:16:00.601Z,36.85
2023-04-08T08:18:29.267Z,37.12
2023-04-08T08:20:57.896Z,37.15
2023-04-08T08:23:26.608Z,37.08
2023-04-08T08:26:21.909Z,37.82
2023-04-08T08:28:50.673Z,37.01
2023-04-08T08:31:19.414Z,37.06
2023-04-08T08:33:48.505Z,37.31
2023-04-08T08:36:17.432Z,37.78
2023-04-08T08:38:46.261Z,36.88
2023-04-08T08:41:16.188Z,36.85
2023-04-08T08:43:45.834Z,36.08
2023-04-08T08:46:18.294Z,37.12
2023-04-08T08:48:47.251Z,37.01
2023-04-08T08:51:16.285Z,37.73
2023-04-08T08:53:46.193Z,38.56
2023-04-08T08:56:17.848Z,38.38
2023-04-08T08:58:48.169Z,38.49
2023-04-08T09:01:38.625Z,38.71
2023-04-08T09:04:17.562Z,38.91
2023-04-08T09:06:52.328Z,38.39
2023-04-08T09:09:20.794Z,38.53
2023-04-08T09:11:49.808Z,38.55
2023-04-08T09:14:23.312Z,38.33
2023-04-08T09:16:54.328Z,37.97
2023-04-08T09:19:23.328Z,38.36
2023-04-08T09:22:21.314Z,38.38
2023-04-08T09:24:50.039Z,38.50
2023-04-08T09:27:36.351Z,38.13
2023-04-08T09:30:15.631Z,38.88
2023-04-08T09:32:54.095Z,38.70
2023-04-08T09:35:24.299Z,38.99
2023-04-08T09:37:53.251Z,39.44
2023-04-08T09:40:27.092Z,39.35
2023-04-08T09:42:57.843Z,39.65
2023-04-08T09:45:28.880Z,39.64
2023-04-08T09:48:11.438Z,40.54
2023-04-08T09:50:48.953Z,40.89
2023-04-08T09:53:52.223Z,41.35
2023-04-08T09:56:22.597Z,41.26
2023-04-08T09:59:00.800Z,41.30
2023-04-08T10:01:53.693Z,41.57
2023-04-08T10:04:25.357Z,41.56
2023-04-08T10:06:58.814Z,41.82
2023-04-08T10:09:30.165Z,41.91
2023-04-08T10:11:59.204Z,41.89
2023-04-08T10:14:29.475Z,42.11
2023-04-08T10:17:29.306Z,43.28
2023-04-08T10:19:59.492Z,42.43
2023-04-08T10:22:31.107Z,42.89
2023-04-08T10:25:18.275Z,43.74
2023-04-08T10:27:47.135Z,43.60
2023-04-08T10:30:33.253Z,44.33
2023-04-08T10:33:02.943Z,43.73
2023-04-08T10:35:37.781Z,42.97
2023-04-08T10:38:08.089Z,43.24
2023-04-08T10:40:40.250Z,43.51
2023-04-08T10:43:12.901Z,44.13
2023-04-08T10:45:43.173Z,43.58
2023-04-08T10:48:18.532Z,44.15
2023-04-08T10:51:00.679Z,43.41
2023-04-08T10:53:39.996Z,44.59
2023-04-08T10:56:15.822Z,44.48
2023-04-08T10:58:59.876Z,45.35
2023-04-08T11:01:30.108Z,44.76
2023-04-08T11:04:00.183Z,45.08
2023-04-08T11:06:31.377Z,45.11
2023-04-08T11:09:01.025Z,45.35
2023-04-08T11:11:30.484Z,45.67
2023-04-08T11:13:59.393Z,45.37
2023-04-08T11:16:29.829Z,45.91
2023-04-08T11:18:59.587Z,45.79
2023-04-08T11:21:29.769Z,46.23
2023-04-08T11:23:59.909Z,46.20
2023-04-08T11:26:29.178Z,45.92
2023-04-08T11:28:59.303Z,45.60
2023-04-08T11:31:32.578Z,45.61
2023-04-08T11:34:03.986Z,46.26
2023-04-08T11:36:32.878Z,45.87
2023-04-08T11:39:01.569Z,46.37
2023-04-08T11:41:39.605Z,46.25
2023-04-08T11:44:09.303Z,46.54
2023-04-08T11:46:38.108Z,46.75
2023-04-08T11:49:08.919Z,46.64
2023-04-08T11:51:59.870Z,47.09
2023-04-08T11:54:33.158Z,47.51
2023-04-08T11:57:04.102Z,47.36
2023-04-08T11:59:35.837Z,47.04
2023-04-08T12:02:05.528Z,46.82
2023-04-08T12:04:34.967Z,47.34
2023-04-08T12:07:03.780Z,47.01
2023-04-08T12:09:32.371Z,47.59
2023-04-08T12:12:02.106Z,47.74
2023-04-08T12:14:31.003Z,48.17
2023-04-08T12:17:00.995Z,48.25
2023-04-08T12:19:30.844Z,48.15
2023-04-08T12:22:01.214Z,48.48
2023-04-08T12:24:30.379Z,48.68
2023-04-08T12:26:59.219Z,49.01
2023-04-08T12:29:27.824Z,48.96
2023-04-08T12:31:56.802Z,48.84
2023-04-08T12:34:25.700Z,48.76
2023-04-08T12:36:54.446Z,48.98
2023-04-08T12:39:23.279Z,48.99
2023-04-08T12:41:52.384Z,49.39
2023-04-08T12:44:21.667Z,49.07
2023-04-08T12:46:50.554Z,48.63
2023-04-08T12:49:19.587Z,49.73
2023-04-08T12:51:51.103Z,49.77
2023-04-08T12:54:19.888Z,49.64
2023-04-08T12:56:49.604Z,50.23
2023-04-08T12:59:18.683Z,49.73
2023-04-08T13:01:47.908Z,50.29
2023-04-08T13:04:16.835Z,50.40
2023-04-08T13:06:45.563Z,50.58
2023-04-08T13:09:15.963Z,50.77
2023-04-08T13:11:44.705Z,50.78
2023-04-08T13:14:14.522Z,51.26
2023-04-08T13:16:46.058Z,50.81
2023-04-08T13:19:15.017Z,51.69
2023-04-08T13:21:45.496Z,51.51
2023-04-08T13:24:14.897Z,51.58
2023-04-08T13:26:43.804Z,51.89
2023-04-08T13:29:12.528Z,52.31
2023-04-08T13:31:41.651Z,51.63
2023-04-08T13:34:10.688Z,51.93
2023-04-08T13:36:39.458Z,52.08
2023-04-08T13:39:08.246Z,52.39
2023-04-08T13:41:37.191Z,52.54
2023-04-08T13:44:06.572Z,52.62
2023-04-08T13:46:35.349Z,53.13
2023-04-08T13:49:04.277Z,53.42
2023-04-08T13:51:34.109Z,53.04
2023-04-08T13:54:06.284Z,53.71
2023-04-08T13:56:35.602Z,53.31
2023-04-08T13:59:04.698Z,53.76
2023-04-08T14:01:34.167Z,54.00
2023-04-08T14:04:03.628Z,54.20
2023-04-08T14:06:33.173Z,54.45
2023-04-08T14:09:01.985Z,54.24
2023-04-08T14:11:31.462Z,53.93
2023-04-08T14:14:00.341Z,54.61
2023-04-08T14:16:32.308Z,54.26
2023-04-08T14:19:01.369Z,54.35
2023-04-08T14:21:30.708Z,54.33
2023-04-08T14:24:01.341Z,54.23
2023-04-08T14:26:31.877Z,54.81
2023-04-08T14:29:01.005Z,54.90
2023-04-08T14:31:29.953Z,54.61
2023-04-08T14:33:59.728Z,55.08
2023-04-08T14:36:29.314Z,55.72
2023-04-08T14:38:59.009Z,55.71
2023-04-08T14:41:27.848Z,55.24
2023-04-08T14:43:57.290Z,56.15
2023-04-08T14:46:29.042Z,55.81
2023-04-08T14:48:59.549Z,55.97
2023-04-08T14:51:32.421Z,55.79
2023-04-08T14:54:02.966Z,56.49
2023-04-08T14:56:32.309Z,56.34
2023-04-08T14:59:01.468Z,56.05
2023-04-08T15:01:32.998Z,56.55
2023-04-08T15:04:01.907Z,56.50
2023-04-08T15:06:32.180Z,56.76
2023-04-08T15:09:01.994Z,56.70
2023-04-08T15:11:30.999Z,56.88
2023-04-08T15:13:59.983Z,56.69
2023-04-08T15:16:29.220Z,57.08
2023-04-08T15:19:01.080Z,56.99
2023-04-08T15:21:30.141Z,56.78
2023-04-08T15:23:59.688Z,57.19
2023-04-08T15:26:28.700Z,57.25
2023-04-08T15:28:59.768Z,57.70
2023-04-08T15:31:28.922Z,57.88
2023-04-08T15:33:59.206Z,57.56
2023-04-08T15:36:28.307Z,58.11
2023-04-08T15:38:57.072Z,57.95
2023-04-08T15:41:28.559Z,58.39
2023-04-08T15:43:57.866Z,58.25
2023-04-08T15:46:27.235Z,57.91
2023-04-08T15:48:56.384Z,58.06
2023-04-08T15:51:25.514Z,58.64
2023-04-08T15:53:54.392Z,58.47
2023-04-08T15:56:23.542Z,58.28
2023-04-08T15:58:53.661Z,57.98
2023-04-08T16:01:22.598Z,58.39
2023-04-08T16:03:51.755Z,58.75
2023-04-08T16:06:20.639Z,59.10
2023-04-08T16:08:49.649Z,58.79
2023-04-08T16:11:18.872Z,58.79
2023-04-08T16:13:48.454Z,58.87
2023-04-08T16:16:17.751Z,58.76
2023-04-08T16:18:47.558Z,59.01
2023-04-08T16:21:16.534Z,58.96
2023-04-08T16:23:45.319Z,58.93
2023-04-08T16:26:14.503Z,59.29
2023-04-08T16:28:43.341Z,59.35
2023-04-08T16:31:12.529Z,59.62
2023-04-08T16:33:41.399Z,59.72
2023-04-08T16:36:10.958Z,59.34
2023-04-08T16:38:39.659Z,59.66
2023-04-08T16:41:10.655Z,59.31
2023-04-08T16:43:40.083Z,59.62
2023-04-08T16:46:18.018Z,60.07
2023-04-08T16:48:47.197Z,59.90
2023-04-08T16:51:16.261Z,59.88
2023-04-08T16:53:44.939Z,59.39
2023-04-08T16:56:18.121Z,60.47
2023-04-08T16:58:47.269Z,59.90
2023-04-08T17:01:16.402Z,60.30
2023-04-08T17:03:45.491Z,60.48
2023-04-08T17:06:15.101Z,60.35
2023-04-08T17:08:44.540Z,60.59
2023-04-08T17:11:15.876Z,60.55
2023-04-08T17:13:45.900Z,60.75
2023-04-08T17:16:17.209Z,60.50
2023-04-08T17:18:47.245Z,61.03
2023-04-08T17:21:16.619Z,60.64
2023-04-08T17:23:46.112Z,61.08
2023-04-08T17:26:14.864Z,61.34
2023-04-08T17:28:44.182Z,61.31
2023-04-08T17:31:13.105Z,60.91
2023-04-08T17:33:42.045Z,60.77
2023-04-08T17:36:11.431Z,60.58
2023-04-08T17:38:40.632Z,61.13
2023-04-08T17:41:10.562Z,60.48
2023-04-08T17:43:39.603Z,60.91
2023-04-08T17:46:08.690Z,61.19
2023-04-08T17:48:37.960Z,61.35
2023-04-08T17:51:07.832Z,61.23
2023-04-08T17:53:36.979Z,60.84
2023-04-08T17:56:06.536Z,60.73
2023-04-08T17:58:36.051Z,60.75
2023-04-08T18:01:05.143Z,60.83
2023-04-08T18:03:34.219Z,60.99
2023-04-08T18:06:03.943Z,60.88
2023-04-08T18:08:33.182Z,61.25
2023-04-08T18:11:07.150Z,61.32
2023-04-08T18:13:36.458Z,61.23
2023-04-08T18:16:05.321Z,61.39
2023-04-08T18:18:37.839Z,61.04
2023-04-08T18:21:06.683Z,61.87
2023-04-08T18:23:35.900Z,61.59
2023-04-08T18:26:05.443Z,61.40
2023-04-08T18:28:34.122Z,61.57
2023-04-08T18:31:04.193Z,61.55
2023-04-08T18:33:33.661Z,61.61
2023-04-08T18:36:15.253Z,61.61
2023-04-08T18:38:45.379Z,61.78
2023-04-08T18:41:14.648Z,61.67
2023-04-08T18:43:43.843Z,61.94
2023-04-08T18:46:12.579Z,61.75
2023-04-08T18:48:42.360Z,61.91
2023-04-08T18:51:13.161Z,61.65
2023-04-08T18:53:42.605Z,62.14
2023-04-08T18:56:21.983Z,62.03
2023-04-08T18:58:51.906Z,61.47
2023-04-08T19:01:20.875Z,61.70
2023-04-08T19:03:50.031Z,62.29
2023-04-08T19:06:21.699Z,62.13
2023-04-08T19:08:50.420Z,62.12
2023-04-08T19:11:20.349Z,61.28
2023-04-08T19:13:50.170Z,61.93
2023-04-08T19:16:19.670Z,62.05
2023-04-08T19:18:48.519Z,62.45
2023-04-08T19:21:17.944Z,61.80
2023-04-08T19:23:49.956Z,61.94
2023-04-08T19:26:19.157Z,61.83
2023-04-08T19:28:48.618Z,62.05
2023-04-08T19:31:19.585Z,62.01
2023-04-08T19:33:49.274Z,62.35
2023-04-08T19:36:19.397Z,62.05
2023-04-08T19:38:49.157Z,62.18
2023-04-08T19:41:18.616Z,61.94
2023-04-08T19:43:48.464Z,62.00
2023-04-08T19:46:17.475Z,62.13
2023-04-08T19:48:47.221Z,62.38
2023-04-08T19:51:17.842Z,61.77
2023-04-08T19:53:47.499Z,62.22
2023-04-08T19:56:17.096Z,61.75
2023-04-08T19:58:46.458Z,61.60
2023-04-08T20:01:15.954Z,61.86
2023-04-08T20:03:51.004Z,61.73
2023-04-08T20:06:20.725Z,61.33
2023-04-08T20:08:51.051Z,61.11
2023-04-08T20:11:21.078Z,61.51
2023-04-08T20:13:52.041Z,61.51
2023-04-08T20:16:21.349Z,61.56
2023-04-08T20:18:50.390Z,61.17
2023-04-08T20:21:19.307Z,61.08
2023-04-08T20:23:47.958Z,61.19
2023-04-08T20:26:17.556Z,61.22
2023-04-08T20:28:46.897Z,61.41
2023-04-08T20:31:16.728Z,61.03
2023-04-08T20:33:46.375Z,61.26
2023-04-08T20:36:15.292Z,61.28
2023-04-08T20:38:44.508Z,61.13
2023-04-08T20:41:18.223Z,61.15
2023-04-08T20:43:47.295Z,60.83
2023-04-08T20:46:16.327Z,61.23
2023-04-08T20:48:45.573Z,60.55
2023-04-08T20:51:14.417Z,60.90
2023-04-08T20:53:44.530Z,61.57
2023-04-08T20:56:13.403Z,61.31
2023-04-08T20:58:42.648Z,61.10
2023-04-08T21:01:12.505Z,61.38
2023-04-08T21:03:41.295Z,61.08
2023-04-08T21:06:21.252Z,61.33
2023-04-08T21:08:52.079Z,61.50
2023-04-08T21:11:21.840Z,61.42
2023-04-08T21:13:50.652Z,61.58
2023-04-08T21:16:19.464Z,61.35
2023-04-08T21:18:48.292Z,61.73
2023-04-08T21:21:17.609Z,61.55
2023-04-08T21:23:46.882Z,61.88
2023-04-08T21:26:15.876Z,61.10
2023-04-08T21:28:44.900Z,61.66
2023-04-08T21:31:14.347Z,61.57
2023-04-08T21:33:43.102Z,61.97
2023-04-08T21:36:12.567Z,61.84
2023-04-08T21:38:42.608Z,61.96
2023-04-08T21:41:11.534Z,61.58
2023-04-08T21:43:40.139Z,62.08
2023-04-08T21:46:09.537Z,61.56
2023-04-08T21:48:38.370Z,62.28
2023-04-08T21:51:07.933Z,62.21
2023-04-08T21:53:38.128Z,61.98
2023-04-08T21:56:08.986Z,61.84
2023-04-08T21:58:37.790Z,62.40
2023-04-08T22:01:07.074Z,62.08
2023-04-08T22:03:36.398Z,62.13
2023-04-08T22:06:08.211Z,61.95
2023-04-08T22:08:37.959Z,62.01
2023-04-08T22:11:12.668Z,62.06
2023-04-08T22:13:41.692Z,61.53
2023-04-08T22:16:11.748Z,61.64
2023-04-08T22:18:41.333Z,61.26
2023-04-08T22:21:13.046Z,61.77
2023-04-08T22:23:44.389Z,61.30
2023-04-08T22:26:15.168Z,61.72
2023-04-08T22:28:44.669Z,61.32
2023-04-08T22:31:13.950Z,61.62
2023-04-08T22:33:43.257Z,61.05
2023-04-08T22:36:13.445Z,62.11
2023-04-08T22:38:43.817Z,61.72
2023-04-08T22:41:20.152Z,61.43
2023-04-08T22:43:49.493Z,61.36
2023-04-08T22:46:22.014Z,61.86
2023-04-08T22:48:54.802Z,61.29
2023-04-08T22:51:26.516Z,61.69
2023-04-08T22:53:55.782Z,62.02
2023-04-08T22:56:26.986Z,61.27
2023-04-08T22:58:56.637Z,61.35
2023-04-08T23:01:25.342Z,60.96
2023-04-08T23:03:54.432Z,61.42
2023-04-08T23:06:23.520Z,61.65
2023-04-08T23:08:52.500Z,61.16
2023-04-08T23:11:21.525Z,61.29
2023-04-08T23:13:50.646Z,61.25
2023-04-08T23:16:19.649Z,61.20
2023-04-08T23:18:48.221Z,60.87
2023-04-08T23:21:17.465Z,61.34
2023-04-08T23:23:46.064Z,61.16
2023-04-08T23:26:22.010Z,61.26
2023-04-08T23:28:51.018Z,61.50
2023-04-08T23:31:20.499Z,61.10
2023-04-08T23:33:49.370Z,60.93
2023-04-08T23:36:18.585Z,61.34
2023-04-08T23:38:47.476Z,61.28
2023-04-08T23:41:16.134Z,61.55
2023-04-08T23:43:44.670Z,61.72
2023-04-08T23:46:13.426Z,61.49
2023-04-08T23:48:42.480Z,61.55
2023-04-08T23:51:12.564Z,61.65
2023-04-08T23:53:41.679Z,61.66
2023-04-08T23:56:11.389Z,61.70
2023-04-08T23:58:40.139Z,61.69
